Impacts TAF Board INFO
FOR SITUATIONAL AWARENESS. NOT TO BE USED FOR FLIGHT PLANNING PURPOSES.
IDs:

KMDW - Chicago/Midway Intl, IL, US

Issued at 1123 UTC 18 Jan 2018
Updated at 1333 UTC 18 Jan 2018
Potential Impact None Slight Moderate High
Time1253Z 18/14Z 18/15Z 18/16Z 18/17Z 18/18Z 18/19Z 18/20Z 18/21Z 18/22Z 18/23Z 19/00Z 19/01Z 19/02Z>>
Type OBS PRVL PRVL PRVL PRVL PRVL PRVL PRVL PRVL PRVL PRVL PRVL PRVL PRVL
VIS 10 >6 >6 >6 >6 >6 >6 >6 >6 >6 >6 >6 >6 >6
CIG -- -- -- -- -- -- -- -- -- -- -- -- -- --
Cover CLR FEW FEW FEW FEW FEW FEW FEW FEW FEW FEW SKC SKC SKC
FltCat VFR VFR VFR VFR VFR VFR VFR VFR VFR VFR VFR VFR VFR VFR
WX -- -- -- -- -- -- -- -- -- -- -- -- -- --
WDir 240 230 230 230 230 230 230 230 230 230 230 230 230 230
WSpd 14 16 16 16 16 16 16 16 16 16 16 12 12 12
WGst -- 23 23 23 23 23 23 23 23 23 23 -- -- --

Raw TAF
KMDW 181123Z 1812/1918 23016G23KT P6SM FEW250
  FM190000 23012KT P6SM SKC
  FM191600 22014G20KT P6SM FEW250


Raw METAR
KMDW 181253Z 24014KT 10SM CLR M08/M12 A3017 RMK AO2 SLP234 T10781122
KMDW 181153Z 24013G19KT 9SM CLR M08/M12 A3016 RMK AO2 SLP233 4/001 T10831122 11072 21083 56010
KMDW 181053Z 24013G19KT 10SM CLR M08/M12 A3018 RMK AO2 SLP238 T10781122

METAR Board
Radar Display
Forecast Discussion

FOR SITUATIONAL AWARENESS. NOT TO BE USED FOR FLIGHT PLANNING PURPOSES.